Hlavní strana
METAR-TAF:

METAR-TAF

Letiště :

Joensuu, Finsko

zeměpisná šířka: 62-40N, zeměpisná délka: 029-38E, výška: 119 m

Aktuální stav počasí

Zpráva byla vytvořena před 19 minutami, v 19:50 UTC
Jihozápadní vítr 4 kt
Teplota 17°C
Vlhkost vzduchu 68%
Tlak 1016 hPa
Viditelnost 10 km a více
Žádná oblačnost pod 1500 m, nevyskytují se cumulonimby.

METAR: EFJO 251950Z AUTO 23004KT CAVOK 17/11 Q1016

Čas: 23:09 (20:09 UTC)

Předpověď počasí

Zpráva byla vytvořena před 2 hodinami a 31 minutami, v 17:38 UTC
Předpověď platná od 25 v 18 UTC do 25 v 24 UTC
Jihozápadní vítr 4 kt
Viditelnost 10 km a více
Žádná oblačnost pod 1500 m, nevyskytují se cumulonimby.

TAF: EFJO 251738Z 2518/2524 22004KT CAVOK

Stav a předpovědi počasí z více než 4 000 letišť (zprávy METAR a TAF).

Červené a žluté tečky na mapě představují dostupné meteorologické stanice.

Když kurzor umístíte na tečku, zobrazí se název stanice.

Pak kliknutím zobrazíte stav a předpověď počasí.

Chcete-li změnit mapu, kliknutím na zelené tlačítko se znaménkem +mapu přiblížíte, kliknutím na zelené tlačítko se znaménkem – mapu oddálíte a kliknutím na zelené šipky přejdete na sousední mapy.


METAR-TAF: